createdAt,value
2023-03-29T00:02:07.413Z,9.19
2023-03-29T00:04:34.364Z,9.19
2023-03-29T00:07:04.548Z,9.20
2023-03-29T00:09:33.133Z,9.20
2023-03-29T00:12:01.163Z,9.21
2023-03-29T00:14:30.491Z,9.21
2023-03-29T00:16:57.985Z,9.21
2023-03-29T00:19:24.607Z,9.23
2023-03-29T00:21:51.154Z,9.23
2023-03-29T00:24:17.808Z,9.24
2023-03-29T00:26:46.439Z,9.26
2023-03-29T00:29:12.957Z,9.25
2023-03-29T00:31:39.791Z,9.26
2023-03-29T00:34:06.344Z,9.28
2023-03-29T00:36:32.929Z,9.29
2023-03-29T00:38:59.456Z,9.29
2023-03-29T00:41:26.201Z,9.30
2023-03-29T00:44:01.149Z,9.31
2023-03-29T00:46:30.539Z,9.31
2023-03-29T00:49:12.908Z,9.31
2023-03-29T00:51:41.595Z,9.32
2023-03-29T00:54:14.853Z,9.33
2023-03-29T00:56:44.449Z,9.35
2023-03-29T00:59:15.727Z,9.35
2023-03-29T01:01:50.448Z,9.37
2023-03-29T01:04:19.879Z,9.36
2023-03-29T01:07:06.126Z,9.37
2023-03-29T01:09:37.508Z,9.38
2023-03-29T01:12:13.208Z,9.39
2023-03-29T01:14:45.983Z,9.39
2023-03-29T01:17:12.940Z,9.38
2023-03-29T01:19:46.115Z,9.40
2023-03-29T01:22:38.703Z,9.41
2023-03-29T01:25:17.388Z,9.42
2023-03-29T01:28:04.070Z,9.42
2023-03-29T01:30:37.402Z,9.42
2023-03-29T01:33:11.603Z,9.44
2023-03-29T01:36:11.778Z,9.42
2023-03-29T01:38:59.410Z,9.44
2023-03-29T01:41:39.760Z,9.45
2023-03-29T01:44:15.350Z,9.47
2023-03-29T01:46:55.484Z,9.46
2023-03-29T01:49:34.640Z,9.46
2023-03-29T01:52:13.281Z,9.48
2023-03-29T01:54:53.309Z,9.47
2023-03-29T01:57:21.827Z,9.48
2023-03-29T01:59:50.853Z,9.48
2023-03-29T02:02:20.537Z,9.50
2023-03-29T02:04:52.350Z,9.50
2023-03-29T02:07:25.030Z,9.51
2023-03-29T02:09:53.773Z,9.52
2023-03-29T02:12:21.383Z,9.53
2023-03-29T02:14:47.920Z,9.53
2023-03-29T02:17:18.474Z,9.53
2023-03-29T02:19:51.980Z,9.54
2023-03-29T02:22:24.012Z,9.55
2023-03-29T02:24:54.628Z,9.54
2023-03-29T02:27:21.346Z,9.55
2023-03-29T02:29:48.016Z,9.54
2023-03-29T02:32:25.795Z,9.54
2023-03-29T02:35:01.877Z,9.54
2023-03-29T02:37:31.890Z,9.54
2023-03-29T02:39:59.550Z,9.55
2023-03-29T02:42:27.917Z,9.54
2023-03-29T02:44:58.266Z,9.55
2023-03-29T02:47:37.217Z,9.55
2023-03-29T02:50:04.382Z,9.56
2023-03-29T02:52:35.896Z,9.59
2023-03-29T02:55:05.485Z,9.56
2023-03-29T02:57:32.479Z,9.57
2023-03-29T03:00:01.088Z,9.58
2023-03-29T03:02:27.974Z,9.58
2023-03-29T03:04:54.718Z,9.58
2023-03-29T03:07:21.618Z,9.57
2023-03-29T03:09:48.486Z,9.58
2023-03-29T03:12:15.112Z,9.59
2023-03-29T03:14:41.621Z,9.60
2023-03-29T03:17:08.314Z,9.59
2023-03-29T03:19:34.958Z,9.60
2023-03-29T03:22:01.484Z,9.61
2023-03-29T03:24:32.608Z,9.61
2023-03-29T03:26:59.358Z,9.62
2023-03-29T03:29:26.131Z,9.62
2023-03-29T03:31:54.148Z,9.63
2023-03-29T03:34:21.326Z,9.63
2023-03-29T03:36:47.866Z,9.64
2023-03-29T03:39:14.431Z,9.65
2023-03-29T03:41:41.121Z,9.66
2023-03-29T03:44:07.682Z,9.67
2023-03-29T03:46:34.268Z,9.66
2023-03-29T03:49:00.815Z,9.67
2023-03-29T03:51:27.314Z,9.68
2023-03-29T03:53:53.914Z,9.70
2023-03-29T03:56:20.563Z,9.70
2023-03-29T03:58:48.270Z,9.70
2023-03-29T04:01:14.886Z,9.71
2023-03-29T04:03:41.635Z,9.71
2023-03-29T04:06:09.772Z,9.73
2023-03-29T04:08:36.376Z,9.73
2023-03-29T04:11:03.108Z,9.74
2023-03-29T04:13:30.165Z,9.74
2023-03-29T04:15:59.384Z,9.75
2023-03-29T04:18:27.717Z,9.75
2023-03-29T04:20:54.449Z,9.75
2023-03-29T04:23:21.077Z,9.75
2023-03-29T04:25:47.730Z,9.76
2023-03-29T04:28:14.352Z,9.76
2023-03-29T04:30:41.440Z,9.79
2023-03-29T04:33:08.759Z,9.78
2023-03-29T04:35:35.458Z,9.78
2023-03-29T04:38:02.067Z,9.78
2023-03-29T04:40:29.146Z,9.80
2023-03-29T04:42:55.801Z,9.79
2023-03-29T04:45:22.557Z,9.80
2023-03-29T04:47:49.610Z,9.80
2023-03-29T04:50:16.211Z,9.81
2023-03-29T04:52:42.775Z,9.81
2023-03-29T04:55:09.527Z,9.82
2023-03-29T04:57:36.043Z,9.83
2023-03-29T05:00:08.394Z,9.83
2023-03-29T05:02:35.007Z,9.83
2023-03-29T05:05:01.593Z,9.83
2023-03-29T05:07:28.151Z,9.85
2023-03-29T05:09:54.662Z,9.84
2023-03-29T05:12:21.279Z,9.85
2023-03-29T05:14:47.835Z,9.85
2023-03-29T05:17:14.526Z,9.87
2023-03-29T05:19:41.363Z,9.87
2023-03-29T05:22:09.122Z,9.89
2023-03-29T05:24:36.169Z,9.88
2023-03-29T05:27:02.747Z,9.89
2023-03-29T05:29:29.380Z,9.90
2023-03-29T05:31:55.893Z,9.89
2023-03-29T05:34:22.577Z,9.90
2023-03-29T05:36:49.343Z,9.92
2023-03-29T05:39:15.900Z,9.92
2023-03-29T05:41:42.792Z,9.93
2023-03-29T05:44:09.441Z,9.93
2023-03-29T05:46:36.010Z,9.94
2023-03-29T05:49:02.795Z,9.94
2023-03-29T05:51:29.422Z,9.95
2023-03-29T05:53:55.922Z,9.95
2023-03-29T05:56:22.657Z,9.96
2023-03-29T05:58:53.739Z,9.98
2023-03-29T06:01:22.627Z,9.99
2023-03-29T06:03:49.519Z,9.99
2023-03-29T06:06:16.768Z,9.99
2023-03-29T06:08:44.595Z,10.00
2023-03-29T06:11:13.438Z,10.02
2023-03-29T06:13:42.254Z,10.03
2023-03-29T06:16:10.838Z,10.04
2023-03-29T06:18:40.233Z,10.06
2023-03-29T06:21:09.454Z,10.06
2023-03-29T06:23:36.527Z,10.08
2023-03-29T06:26:03.354Z,10.09
2023-03-29T06:28:29.972Z,10.09
2023-03-29T06:30:56.869Z,10.11
2023-03-29T06:33:25.236Z,10.12
2023-03-29T06:35:51.896Z,10.12
2023-03-29T06:38:19.526Z,10.12
2023-03-29T06:40:47.312Z,10.16
2023-03-29T06:43:14.250Z,10.16
2023-03-29T06:45:40.974Z,10.16
2023-03-29T06:48:08.071Z,10.17
2023-03-29T06:50:35.450Z,10.19
2023-03-29T06:53:02.301Z,10.20
2023-03-29T06:55:28.904Z,10.22
2023-03-29T06:57:55.587Z,10.22
2023-03-29T07:00:28.392Z,10.24
2023-03-29T07:02:58.038Z,10.26
2023-03-29T07:05:27.262Z,10.29
2023-03-29T07:08:00.019Z,10.28
2023-03-29T07:10:32.414Z,10.30
2023-03-29T07:13:03.267Z,10.32
2023-03-29T07:15:30.010Z,10.34
2023-03-29T07:17:57.579Z,10.35
2023-03-29T07:20:24.976Z,10.37
2023-03-29T07:22:51.901Z,10.38
2023-03-29T07:25:19.851Z,10.41
2023-03-29T07:27:47.207Z,10.41
2023-03-29T07:30:21.140Z,10.43
2023-03-29T07:32:48.181Z,10.44
2023-03-29T07:35:15.246Z,10.46
2023-03-29T07:37:42.869Z,10.50
2023-03-29T07:40:24.620Z,10.52
2023-03-29T07:42:54.266Z,10.55
2023-03-29T07:45:26.556Z,10.58
2023-03-29T07:47:57.738Z,10.64
2023-03-29T07:50:25.789Z,10.67
2023-03-29T07:52:52.757Z,10.72
2023-03-29T07:55:19.923Z,10.77
2023-03-29T07:57:46.486Z,10.80
2023-03-29T08:00:17.171Z,10.84
2023-03-29T08:02:48.167Z,10.87
2023-03-29T08:05:21.040Z,10.92
2023-03-29T08:07:56.467Z,10.95
2023-03-29T08:10:23.314Z,11.00
2023-03-29T08:12:50.818Z,11.04
2023-03-29T08:15:17.563Z,11.07
2023-03-29T08:17:44.587Z,11.14
2023-03-29T08:20:15.013Z,11.16
2023-03-29T08:22:41.603Z,11.20
2023-03-29T08:25:08.976Z,11.23
2023-03-29T08:27:37.564Z,11.27
2023-03-29T08:30:09.513Z,11.31
2023-03-29T08:32:37.631Z,11.35
2023-03-29T08:35:06.736Z,11.40
2023-03-29T08:37:33.421Z,11.45
2023-03-29T08:40:00.927Z,11.49
2023-03-29T08:42:40.994Z,11.56
2023-03-29T08:45:14.078Z,11.62
2023-03-29T08:48:01.621Z,11.68
2023-03-29T08:50:38.439Z,11.74
2023-03-29T08:53:12.929Z,11.78
2023-03-29T08:55:43.389Z,11.84
2023-03-29T08:58:17.948Z,11.91
2023-03-29T09:00:49.838Z,11.95
2023-03-29T09:03:23.027Z,12.02
2023-03-29T09:06:19.368Z,12.06
2023-03-29T09:08:48.189Z,12.10
2023-03-29T09:11:24.065Z,12.14
2023-03-29T09:13:59.707Z,12.21
2023-03-29T09:16:52.334Z,12.27
2023-03-29T09:19:30.470Z,12.33
2023-03-29T09:22:10.224Z,12.39
2023-03-29T09:24:55.339Z,12.47
2023-03-29T09:27:34.477Z,12.54
2023-03-29T09:30:26.289Z,12.60
2023-03-29T09:32:54.244Z,12.66
2023-03-29T09:35:37.230Z,12.71
2023-03-29T09:38:09.538Z,12.77
2023-03-29T09:40:47.702Z,12.83
2023-03-29T09:43:18.454Z,12.87
2023-03-29T09:45:51.279Z,12.90
2023-03-29T09:48:19.741Z,12.91
2023-03-29T09:50:51.229Z,12.96
2023-03-29T09:53:19.399Z,12.96
2023-03-29T09:55:50.356Z,12.97
2023-03-29T09:58:20.155Z,12.97
2023-03-29T10:00:48.472Z,12.98
2023-03-29T10:03:20.180Z,12.98
2023-03-29T10:05:48.084Z,12.99
2023-03-29T10:08:22.474Z,12.97
2023-03-29T10:10:49.639Z,12.98
2023-03-29T10:13:28.776Z,12.98
2023-03-29T10:16:07.512Z,13.00
2023-03-29T10:18:41.637Z,13.01
2023-03-29T10:21:13.266Z,13.02
2023-03-29T10:23:39.800Z,13.03
2023-03-29T10:26:16.747Z,13.01
2023-03-29T10:28:43.583Z,13.02
2023-03-29T10:31:19.574Z,13.02
2023-03-29T10:33:55.551Z,13.01
2023-03-29T10:36:25.788Z,13.00
2023-03-29T10:38:56.742Z,13.01
2023-03-29T10:41:24.764Z,13.00
2023-03-29T10:43:51.776Z,12.99
2023-03-29T10:46:21.400Z,13.00
2023-03-29T10:48:50.653Z,12.99
2023-03-29T10:51:18.882Z,12.98
2023-03-29T10:53:45.832Z,12.99
2023-03-29T10:56:15.435Z,12.98
2023-03-29T10:58:54.277Z,12.98
2023-03-29T11:01:32.713Z,12.98
2023-03-29T11:04:16.300Z,12.97
2023-03-29T11:07:22.684Z,12.99
2023-03-29T11:09:54.948Z,12.99
2023-03-29T11:12:58.824Z,13.01
2023-03-29T11:15:57.027Z,13.01
2023-03-29T11:18:54.579Z,13.02
2023-03-29T11:21:52.157Z,13.03
2023-03-29T11:24:54.216Z,13.03
2023-03-29T11:27:36.510Z,13.02
2023-03-29T11:30:12.229Z,13.02
2023-03-29T11:33:02.971Z,13.05
2023-03-29T11:35:53.988Z,13.07
2023-03-29T11:38:27.982Z,13.10
2023-03-29T11:41:13.787Z,13.14
2023-03-29T11:44:13.392Z,13.42
2023-03-29T11:47:03.404Z,13.55
2023-03-29T11:49:40.464Z,13.48
2023-03-29T11:52:17.647Z,13.49
2023-03-29T11:55:06.961Z,13.53
2023-03-29T11:57:53.862Z,13.57
2023-03-29T12:00:30.486Z,13.62
2023-03-29T12:03:13.306Z,13.66
2023-03-29T12:05:45.547Z,13.70
2023-03-29T12:08:14.957Z,13.73
2023-03-29T12:10:48.086Z,13.75
2023-03-29T12:13:14.555Z,13.77
2023-03-29T12:15:49.893Z,13.80
2023-03-29T12:18:24.150Z,13.83
2023-03-29T12:21:01.942Z,13.86
2023-03-29T12:23:32.775Z,13.90
2023-03-29T12:26:21.148Z,13.92
2023-03-29T12:29:09.664Z,13.94
2023-03-29T12:31:48.298Z,13.96
2023-03-29T12:34:35.368Z,13.99
2023-03-29T12:37:04.870Z,14.01
2023-03-29T12:39:32.873Z,14.03
2023-03-29T12:42:21.091Z,14.02
2023-03-29T12:45:01.634Z,14.05
2023-03-29T12:47:35.942Z,14.03
2023-03-29T12:50:04.598Z,14.03
2023-03-29T12:52:35.942Z,14.04
2023-03-29T12:55:25.265Z,14.05
2023-03-29T12:58:08.415Z,14.06
2023-03-29T13:00:42.248Z,14.07
2023-03-29T13:03:27.380Z,14.05
2023-03-29T13:06:05.416Z,14.04
2023-03-29T13:08:36.710Z,14.02
2023-03-29T13:11:05.285Z,14.00
2023-03-29T13:13:37.379Z,13.98
2023-03-29T13:16:14.663Z,13.97
2023-03-29T13:19:08.136Z,13.97
2023-03-29T13:22:25.295Z,13.97
2023-03-29T13:25:06.776Z,13.96
2023-03-29T13:28:08.021Z,13.98
2023-03-29T13:31:01.837Z,14.00
2023-03-29T13:33:43.550Z,14.02
2023-03-29T13:36:52.287Z,14.04
2023-03-29T13:39:29.062Z,14.06
2023-03-29T13:42:37.736Z,14.10
2023-03-29T13:45:23.181Z,14.13
2023-03-29T13:48:04.335Z,14.15
2023-03-29T13:50:51.457Z,14.19
2023-03-29T13:53:33.459Z,14.24
2023-03-29T13:56:01.263Z,14.26
2023-03-29T13:58:48.920Z,14.30
2023-03-29T14:01:36.413Z,14.35
2023-03-29T14:04:07.268Z,14.38
2023-03-29T14:06:37.604Z,14.41
2023-03-29T14:09:08.492Z,14.43
2023-03-29T14:11:36.230Z,14.48
2023-03-29T14:14:08.580Z,14.51
2023-03-29T14:16:39.037Z,14.59
2023-03-29T14:19:19.010Z,14.65
2023-03-29T14:21:46.417Z,14.72
2023-03-29T14:24:20.818Z,14.80
2023-03-29T14:26:48.091Z,14.85
2023-03-29T14:29:15.797Z,14.89
2023-03-29T14:31:43.077Z,14.95
2023-03-29T14:34:18.391Z,14.99
2023-03-29T14:36:48.994Z,15.01
2023-03-29T14:39:18.916Z,15.07
2023-03-29T14:41:54.818Z,15.13
2023-03-29T14:44:25.037Z,15.19
2023-03-29T14:46:52.040Z,15.23
2023-03-29T14:49:20.793Z,15.30
2023-03-29T14:51:49.256Z,15.38
2023-03-29T14:54:37.109Z,15.46
2023-03-29T14:57:07.250Z,15.53
2023-03-29T14:59:41.296Z,15.61
2023-03-29T15:02:34.135Z,15.67
2023-03-29T15:05:23.204Z,15.74
2023-03-29T15:07:51.704Z,15.77
2023-03-29T15:10:19.303Z,15.81
2023-03-29T15:12:46.612Z,15.85
2023-03-29T15:15:13.860Z,15.86
2023-03-29T15:17:51.027Z,15.89
2023-03-29T15:20:24.008Z,15.92
2023-03-29T15:22:58.848Z,15.92
2023-03-29T15:25:34.192Z,15.94
2023-03-29T15:28:01.797Z,15.92
2023-03-29T15:30:44.221Z,15.95
2023-03-29T15:33:21.272Z,15.95
2023-03-29T15:35:51.950Z,15.98
2023-03-29T15:38:23.421Z,16.04
2023-03-29T15:40:54.360Z,16.14
2023-03-29T15:43:22.504Z,16.19
2023-03-29T15:45:49.196Z,16.24
2023-03-29T15:48:19.028Z,16.24
2023-03-29T15:50:45.769Z,16.27
2023-03-29T15:53:15.422Z,16.24
2023-03-29T15:55:45.993Z,16.22
2023-03-29T15:58:19.080Z,16.19
2023-03-29T16:00:51.366Z,16.16
2023-03-29T16:03:18.337Z,16.13
2023-03-29T16:05:46.420Z,16.10
2023-03-29T16:08:13.755Z,16.05
2023-03-29T16:10:41.647Z,16.00
2023-03-29T16:13:12.192Z,15.98
2023-03-29T16:15:41.299Z,15.93
2023-03-29T16:18:08.304Z,15.92
2023-03-29T16:20:34.943Z,15.89
2023-03-29T16:23:01.578Z,15.86
2023-03-29T16:25:28.395Z,15.84
2023-03-29T16:27:54.893Z,15.83
2023-03-29T16:30:21.528Z,15.81
2023-03-29T16:32:48.130Z,15.80
2023-03-29T16:35:41.325Z,15.77
2023-03-29T16:38:09.275Z,15.76
2023-03-29T16:40:36.634Z,15.74
2023-03-29T16:43:03.546Z,15.72
2023-03-29T16:45:30.133Z,15.71
2023-03-29T16:47:57.091Z,15.71
2023-03-29T16:50:23.893Z,15.67
2023-03-29T16:52:52.560Z,15.66
2023-03-29T16:55:19.359Z,15.67
2023-03-29T16:57:47.244Z,15.67
2023-03-29T17:00:16.400Z,15.68
2023-03-29T17:02:43.813Z,15.68
2023-03-29T17:05:12.021Z,15.66
2023-03-29T17:07:39.360Z,15.67
2023-03-29T17:10:08.294Z,15.65
2023-03-29T17:12:35.778Z,15.62
2023-03-29T17:15:03.929Z,15.61
2023-03-29T17:17:30.801Z,15.58
2023-03-29T17:19:58.550Z,15.56
2023-03-29T17:22:25.584Z,15.54
2023-03-29T17:24:52.256Z,15.50
2023-03-29T17:27:19.058Z,15.50
2023-03-29T17:29:45.764Z,15.45
2023-03-29T17:32:12.348Z,15.44
2023-03-29T17:34:39.002Z,15.40
2023-03-29T17:37:05.836Z,15.36
2023-03-29T17:39:33.271Z,15.34
2023-03-29T17:41:59.846Z,15.34
2023-03-29T17:44:27.063Z,15.30
2023-03-29T17:46:53.681Z,15.27
2023-03-29T17:49:20.485Z,15.26
2023-03-29T17:51:47.055Z,15.22
2023-03-29T17:54:13.655Z,15.19
2023-03-29T17:56:40.364Z,15.17
2023-03-29T17:59:06.981Z,15.14
2023-03-29T18:01:33.682Z,15.13
2023-03-29T18:04:00.573Z,15.10
2023-03-29T18:06:27.262Z,15.07
2023-03-29T18:08:53.758Z,15.05
2023-03-29T18:11:25.703Z,15.03
2023-03-29T18:13:53.183Z,15.00
2023-03-29T18:16:21.377Z,14.99
2023-03-29T18:18:48.583Z,14.99
2023-03-29T18:21:16.828Z,14.97
2023-03-29T18:23:47.959Z,14.94
2023-03-29T18:26:16.123Z,14.93
2023-03-29T18:28:46.602Z,14.89
2023-03-29T18:31:13.862Z,14.88
2023-03-29T18:33:40.627Z,14.84
2023-03-29T18:36:10.875Z,14.83
2023-03-29T18:38:40.468Z,14.82
2023-03-29T18:41:08.661Z,14.77
2023-03-29T18:43:37.047Z,14.75
2023-03-29T18:46:04.040Z,14.74
2023-03-29T18:48:31.250Z,14.73
2023-03-29T18:50:58.485Z,14.70
2023-03-29T18:53:25.144Z,14.66
2023-03-29T18:55:51.775Z,14.65
2023-03-29T18:58:20.401Z,14.67
2023-03-29T19:00:46.957Z,14.64
2023-03-29T19:03:13.592Z,14.63
2023-03-29T19:05:40.506Z,14.54
2023-03-29T19:08:09.042Z,14.56
2023-03-29T19:10:37.117Z,14.57
2023-03-29T19:13:04.535Z,14.47
2023-03-29T19:15:32.493Z,14.48
2023-03-29T19:17:59.296Z,14.47
2023-03-29T19:20:25.913Z,14.46
2023-03-29T19:22:53.262Z,14.45
2023-03-29T19:25:20.044Z,14.43
2023-03-29T19:27:46.777Z,14.43
2023-03-29T19:30:14.308Z,14.39
2023-03-29T19:32:41.083Z,14.38
2023-03-29T19:35:09.564Z,14.38
2023-03-29T19:37:36.264Z,14.36
2023-03-29T19:40:03.769Z,14.36
2023-03-29T19:42:30.393Z,14.36
2023-03-29T19:44:56.994Z,14.36
2023-03-29T19:47:23.533Z,14.35
2023-03-29T19:49:50.340Z,14.35
2023-03-29T19:52:16.886Z,14.33
2023-03-29T19:54:44.228Z,14.32
2023-03-29T19:57:10.848Z,14.33
2023-03-29T19:59:38.823Z,14.32
2023-03-29T20:02:05.432Z,14.31
2023-03-29T20:04:33.274Z,14.30
2023-03-29T20:07:00.110Z,14.26
2023-03-29T20:09:26.767Z,14.24
2023-03-29T20:11:53.325Z,14.21
2023-03-29T20:14:20.182Z,14.18
2023-03-29T20:16:46.763Z,14.17
2023-03-29T20:19:17.899Z,14.13
2023-03-29T20:21:44.605Z,14.12
2023-03-29T20:24:11.436Z,14.07
2023-03-29T20:26:38.008Z,14.08
2023-03-29T20:29:04.679Z,14.05
2023-03-29T20:31:31.453Z,14.03
2023-03-29T20:33:58.094Z,13.99
2023-03-29T20:36:26.652Z,13.98
2023-03-29T20:38:56.046Z,13.95
2023-03-29T20:41:22.927Z,13.92
2023-03-29T20:43:58.150Z,13.91
2023-03-29T20:46:33.149Z,13.88
2023-03-29T20:49:01.920Z,13.89
2023-03-29T20:51:31.825Z,13.85
2023-03-29T20:54:04.713Z,13.82
2023-03-29T20:56:34.364Z,13.80
2023-03-29T20:59:00.970Z,13.77
2023-03-29T21:01:29.630Z,13.76
2023-03-29T21:03:56.564Z,13.73
2023-03-29T21:06:24.572Z,13.71
2023-03-29T21:08:52.603Z,13.70
2023-03-29T21:11:21.013Z,13.69
2023-03-29T21:13:47.706Z,13.66
2023-03-29T21:16:14.476Z,13.64
2023-03-29T21:18:41.652Z,13.58
2023-03-29T21:21:09.467Z,13.54
2023-03-29T21:23:36.583Z,13.52
2023-03-29T21:26:04.497Z,13.52
2023-03-29T21:28:31.401Z,13.49
2023-03-29T21:30:57.938Z,13.48
2023-03-29T21:33:24.876Z,13.47
2023-03-29T21:35:51.500Z,13.46
2023-03-29T21:38:18.116Z,13.44
2023-03-29T21:40:44.699Z,13.43
2023-03-29T21:43:11.273Z,13.38
2023-03-29T21:45:37.978Z,13.37
2023-03-29T21:48:04.756Z,13.36
2023-03-29T21:50:33.752Z,13.35
2023-03-29T21:53:01.883Z,13.33
2023-03-29T21:55:28.719Z,13.34
2023-03-29T21:57:55.241Z,13.33
2023-03-29T22:00:22.417Z,13.29
2023-03-29T22:02:49.179Z,13.28
2023-03-29T22:05:16.301Z,13.29
2023-03-29T22:07:43.093Z,13.29
2023-03-29T22:10:11.734Z,13.26
2023-03-29T22:12:39.195Z,13.23
2023-03-29T22:15:07.400Z,13.23
2023-03-29T22:17:35.965Z,13.22
2023-03-29T22:20:04.516Z,13.21
2023-03-29T22:22:31.125Z,13.18
2023-03-29T22:24:57.650Z,13.17
2023-03-29T22:27:24.190Z,13.18
2023-03-29T22:29:50.801Z,13.15
2023-03-29T22:32:17.377Z,13.13
2023-03-29T22:34:43.891Z,13.12
2023-03-29T22:37:10.420Z,13.09
2023-03-29T22:39:37.432Z,13.08
2023-03-29T22:42:04.195Z,13.06
2023-03-29T22:44:33.940Z,13.04
2023-03-29T22:47:00.603Z,13.04
2023-03-29T22:49:27.224Z,13.01
2023-03-29T22:51:53.778Z,13.02
2023-03-29T22:54:20.669Z,13.01
2023-03-29T22:56:47.232Z,13.01
2023-03-29T22:59:14.148Z,12.99
2023-03-29T23:01:41.019Z,12.96
2023-03-29T23:04:08.204Z,12.96
2023-03-29T23:06:34.794Z,12.96
2023-03-29T23:09:01.351Z,12.93
2023-03-29T23:11:28.096Z,12.95
2023-03-29T23:13:55.199Z,12.95
2023-03-29T23:16:21.873Z,12.93
2023-03-29T23:18:48.879Z,12.93
2023-03-29T23:21:15.422Z,12.92
2023-03-29T23:23:42.300Z,12.91
2023-03-29T23:26:09.224Z,12.91
2023-03-29T23:28:36.113Z,12.91
2023-03-29T23:31:11.457Z,12.88
2023-03-29T23:33:41.187Z,12.86
2023-03-29T23:36:26.127Z,12.85
2023-03-29T23:38:53.588Z,12.81
2023-03-29T23:41:20.386Z,12.81
2023-03-29T23:43:47.450Z,12.78
2023-03-29T23:46:16.581Z,12.77
2023-03-29T23:48:48.965Z,12.77
2023-03-29T23:51:18.975Z,12.75
2023-03-29T23:53:46.596Z,12.75
2023-03-29T23:56:13.261Z,12.75
2023-03-29T23:58:39.875Z,12.73
